createdAt,value
2023-01-01T00:02:24.515Z,21.67
2023-01-01T00:04:51.305Z,18.40
2023-01-01T00:07:17.816Z,20.13
2023-01-01T00:10:10.586Z,20.00
2023-01-01T00:12:37.519Z,17.80
2023-01-01T00:15:04.385Z,23.33
2023-01-01T00:17:31.320Z,17.10
2023-01-01T00:19:58.189Z,16.90
2023-01-01T00:22:53.300Z,23.70
2023-01-01T00:25:18.062Z,15.60
2023-01-01T00:27:44.590Z,15.43
2023-01-01T00:30:11.599Z,20.48
2023-01-01T00:32:38.395Z,21.73
2023-01-01T00:35:05.785Z,17.02
2023-01-01T00:37:32.500Z,22.73
2023-01-01T00:39:59.346Z,16.25
2023-01-01T00:42:25.868Z,15.27
2023-01-01T00:44:52.413Z,15.35
2023-01-01T00:47:19.512Z,14.82
2023-01-01T00:49:46.072Z,17.17
2023-01-01T00:52:16.152Z,13.48
2023-01-01T00:54:42.853Z,14.25
2023-01-01T00:57:09.649Z,18.85
2023-01-01T00:59:37.164Z,13.27
2023-01-01T01:02:03.738Z,13.90
2023-01-01T01:04:30.467Z,7.57
2023-01-01T01:06:57.056Z,10.35
2023-01-01T01:09:23.702Z,11.90
2023-01-01T01:11:50.682Z,15.80
2023-01-01T01:14:37.128Z,9.47
2023-01-01T01:17:03.827Z,9.25
2023-01-01T01:19:30.903Z,10.57
2023-01-01T01:21:57.407Z,10.00
2023-01-01T01:24:24.504Z,11.63
2023-01-01T01:26:53.061Z,4.87
2023-01-01T01:29:19.793Z,7.30
2023-01-01T01:31:46.395Z,6.72
2023-01-01T01:34:16.197Z,9.02
2023-01-01T01:36:43.111Z,3.70
2023-01-01T01:39:16.400Z,8.63
2023-01-01T01:41:42.851Z,6.97
2023-01-01T01:44:47.558Z,11.38
2023-01-01T01:47:48.243Z,4.65
2023-01-01T01:50:23.759Z,11.75
2023-01-01T01:53:17.993Z,8.23
2023-01-01T01:55:48.606Z,7.28
2023-01-01T01:58:16.417Z,8.18
2023-01-01T02:00:43.625Z,8.05
2023-01-01T02:03:17.068Z,6.15
2023-01-01T02:05:44.503Z,7.47
2023-01-01T02:08:14.593Z,8.77
2023-01-01T02:10:41.352Z,8.00
2023-01-01T02:13:08.022Z,5.60
2023-01-01T02:15:42.142Z,4.93
2023-01-01T02:18:16.670Z,4.13
2023-01-01T02:20:54.067Z,8.48
2023-01-01T02:23:33.679Z,9.85
2023-01-01T02:26:19.175Z,7.15
2023-01-01T02:28:52.836Z,8.43
2023-01-01T02:31:28.046Z,4.73
2023-01-01T02:34:00.338Z,5.05
2023-01-01T02:36:30.877Z,9.13
2023-01-01T02:39:01.362Z,8.32
2023-01-01T02:41:33.197Z,5.43
2023-01-01T02:46:32.291Z,7.22
2023-01-01T02:49:01.270Z,5.50
2023-01-01T02:52:09.325Z,8.85
2023-01-01T02:54:50.810Z,6.95
2023-01-01T02:57:30.109Z,5.38
2023-01-01T03:00:19.470Z,5.20
2023-01-01T03:03:14.930Z,4.00
2023-01-01T03:06:03.235Z,8.93
2023-01-01T03:08:44.675Z,3.47
2023-01-01T03:11:18.625Z,13.25
2023-01-01T03:14:12.278Z,5.43
2023-01-01T03:16:57.658Z,6.73
2023-01-01T03:19:33.248Z,3.67
2023-01-01T03:22:05.038Z,4.80
2023-01-01T03:24:40.128Z,6.82
2023-01-01T03:27:13.693Z,2.38
2023-01-01T03:29:42.434Z,3.10
2023-01-01T03:32:14.472Z,4.35
2023-01-01T03:34:47.637Z,5.82
2023-01-01T03:37:23.975Z,4.78
2023-01-01T03:39:53.505Z,5.07
2023-01-01T03:42:37.439Z,5.47
2023-01-01T03:45:09.742Z,4.88
2023-01-01T03:47:38.177Z,2.72
2023-01-01T03:50:05.986Z,6.10
2023-01-01T03:52:36.049Z,5.10
2023-01-01T03:55:15.678Z,4.43
2023-01-01T03:58:24.108Z,4.88
2023-01-01T04:00:59.773Z,6.80
2023-01-01T04:03:29.612Z,5.28
2023-01-01T04:05:56.130Z,4.65
2023-01-01T04:08:22.932Z,3.57
2023-01-01T04:10:55.075Z,6.20
2023-01-01T04:13:21.727Z,4.75
2023-01-01T04:15:48.328Z,3.78
2023-01-01T04:18:14.918Z,2.97
2023-01-01T04:20:41.381Z,5.40
2023-01-01T04:23:07.866Z,6.82
2023-01-01T04:25:34.367Z,4.40
2023-01-01T04:28:03.614Z,5.90
2023-01-01T04:30:30.538Z,8.35
2023-01-01T04:32:56.991Z,7.17
2023-01-01T04:35:23.484Z,2.10
2023-01-01T04:37:49.923Z,3.28
2023-01-01T04:40:16.460Z,3.72
2023-01-01T04:42:43.531Z,2.97
2023-01-01T04:45:12.422Z,4.43
2023-01-01T04:47:39.187Z,3.92
2023-01-01T04:50:06.133Z,4.75
2023-01-01T04:52:33.492Z,5.53
2023-01-01T04:55:00.091Z,3.30
2023-01-01T04:57:29.217Z,5.37
2023-01-01T04:59:56.252Z,6.43
2023-01-01T05:02:24.281Z,3.08
2023-01-01T05:04:51.271Z,2.58
2023-01-01T05:07:17.983Z,4.43
2023-01-01T05:09:44.651Z,6.07
2023-01-01T05:12:11.509Z,3.13
2023-01-01T05:14:37.966Z,2.50
2023-01-01T05:17:04.429Z,5.47
2023-01-01T05:19:30.976Z,2.53
2023-01-01T05:21:57.476Z,6.53
2023-01-01T05:24:24.020Z,2.50
2023-01-01T05:26:50.529Z,4.20
2023-01-01T05:29:17.644Z,2.90
2023-01-01T05:31:45.933Z,5.35
2023-01-01T05:34:13.042Z,4.13
2023-01-01T05:36:40.450Z,3.30
2023-01-01T05:39:08.489Z,3.35
2023-01-01T05:41:36.685Z,7.38
2023-01-01T05:44:05.972Z,3.78
2023-01-01T05:46:33.015Z,1.87
2023-01-01T05:48:59.776Z,4.40
2023-01-01T05:51:29.742Z,3.03
2023-01-01T05:53:57.029Z,3.15
2023-01-01T05:56:24.125Z,5.00
2023-01-01T05:58:50.964Z,2.70
2023-01-01T06:01:24.204Z,2.35
2023-01-01T06:03:51.496Z,5.18
2023-01-01T06:06:20.413Z,4.50
2023-01-01T06:08:55.713Z,3.53
2023-01-01T06:11:22.615Z,2.97
2023-01-01T06:13:52.317Z,6.90
2023-01-01T06:16:18.789Z,2.25
2023-01-01T06:18:46.953Z,2.92
2023-01-01T06:21:16.338Z,2.78
2023-01-01T06:23:44.240Z,10.30
2023-01-01T06:26:12.289Z,2.22
2023-01-01T06:28:38.957Z,6.18
2023-01-01T06:31:08.865Z,2.15
2023-01-01T06:33:35.996Z,3.83
2023-01-01T06:36:07.923Z,2.93
2023-01-01T06:38:36.536Z,7.35
2023-01-01T06:41:05.871Z,8.35
2023-01-01T06:43:34.076Z,1.73
2023-01-01T06:46:00.527Z,5.82
2023-01-01T06:48:29.465Z,5.83
2023-01-01T06:50:56.024Z,2.80
2023-01-01T06:53:26.929Z,2.50
2023-01-01T06:55:57.331Z,3.63
2023-01-01T06:58:24.207Z,3.13
2023-01-01T07:00:51.348Z,4.50
2023-01-01T07:03:24.785Z,1.70
2023-01-01T07:05:51.784Z,3.75
2023-01-01T07:08:20.601Z,0.95
2023-01-01T07:10:47.566Z,1.17
2023-01-01T07:13:17.272Z,2.27
2023-01-01T07:15:44.451Z,1.00
2023-01-01T07:18:15.748Z,4.88
2023-01-01T07:20:43.491Z,3.00
2023-01-01T07:23:13.268Z,1.95
2023-01-01T07:25:43.311Z,2.77
2023-01-01T07:28:11.552Z,2.78
2023-01-01T07:30:38.211Z,1.73
2023-01-01T07:33:07.160Z,6.32
2023-01-01T07:35:35.547Z,2.30
2023-01-01T07:38:02.121Z,2.77
2023-01-01T07:40:31.779Z,6.05
2023-01-01T07:42:58.544Z,2.13
2023-01-01T07:45:26.766Z,3.15
2023-01-01T07:47:55.453Z,2.35
2023-01-01T07:50:24.255Z,6.60
2023-01-01T07:52:51.290Z,1.60
2023-01-01T07:55:19.994Z,4.22
2023-01-01T07:57:48.834Z,5.07
2023-01-01T08:00:18.530Z,6.35
2023-01-01T08:02:45.533Z,6.77
2023-01-01T08:05:12.858Z,4.38
2023-01-01T08:07:41.295Z,3.63
2023-01-01T08:10:09.541Z,3.38
2023-01-01T08:12:36.659Z,2.42
2023-01-01T08:15:04.638Z,3.70
2023-01-01T08:17:31.412Z,1.13
2023-01-01T08:19:59.863Z,1.75
2023-01-01T08:22:28.331Z,2.63
2023-01-01T08:24:55.614Z,4.65
2023-01-01T08:27:24.335Z,3.80
2023-01-01T08:29:51.307Z,8.48
2023-01-01T08:32:18.592Z,4.72
2023-01-01T08:34:46.611Z,4.25
2023-01-01T08:37:15.357Z,2.25
2023-01-01T08:39:42.260Z,4.87
2023-01-01T08:42:12.352Z,4.97
2023-01-01T08:44:39.163Z,1.27
2023-01-01T08:47:05.542Z,4.45
2023-01-01T08:49:32.617Z,4.97
2023-01-01T08:51:59.142Z,5.40
2023-01-01T08:54:25.488Z,5.53
2023-01-01T08:56:51.884Z,2.28
2023-01-01T08:59:18.324Z,3.40
2023-01-01T09:01:44.835Z,5.18
2023-01-01T09:04:15.713Z,3.60
2023-01-01T09:06:42.454Z,4.63
2023-01-01T09:09:08.898Z,7.80
2023-01-01T09:11:35.309Z,3.00
2023-01-01T09:14:01.676Z,4.78
2023-01-01T09:16:28.104Z,3.23
2023-01-01T09:18:54.742Z,3.95
2023-01-01T09:21:21.311Z,8.38
2023-01-01T09:23:47.711Z,6.55
2023-01-01T09:26:14.233Z,4.65
2023-01-01T09:28:40.661Z,3.37
2023-01-01T09:31:07.084Z,4.82
2023-01-01T09:33:34.454Z,3.70
2023-01-01T09:36:23.040Z,4.85
2023-01-01T09:38:50.660Z,2.10
2023-01-01T09:41:40.460Z,5.97
2023-01-01T09:44:29.533Z,8.25
2023-01-01T09:47:00.367Z,6.50
2023-01-01T09:49:41.965Z,4.32
2023-01-01T09:52:13.617Z,3.35
2023-01-01T09:54:47.619Z,2.90
2023-01-01T09:57:19.804Z,5.38
2023-01-01T09:59:46.699Z,1.70
2023-01-01T10:02:31.812Z,6.20
2023-01-01T10:05:35.910Z,6.40
2023-01-01T10:08:19.629Z,6.47
2023-01-01T10:11:14.048Z,6.20
2023-01-01T10:13:46.033Z,3.90
2023-01-01T10:16:34.487Z,5.60
2023-01-01T10:19:25.067Z,4.78
2023-01-01T10:21:55.779Z,3.63
2023-01-01T10:24:28.224Z,5.57
2023-01-01T10:26:56.613Z,3.47
2023-01-01T10:29:31.967Z,7.00
2023-01-01T10:32:05.769Z,9.43
2023-01-01T10:34:33.549Z,5.33
2023-01-01T10:37:00.921Z,2.75
2023-01-01T10:39:28.260Z,5.43
2023-01-01T10:41:54.717Z,2.72
2023-01-01T10:44:30.569Z,3.05
2023-01-01T10:46:59.275Z,5.07
2023-01-01T10:49:25.714Z,3.92
2023-01-01T10:51:54.484Z,5.65
2023-01-01T10:54:37.966Z,4.28
2023-01-01T10:57:22.652Z,5.53
2023-01-01T10:59:54.151Z,6.83
2023-01-01T11:02:25.572Z,7.05
2023-01-01T11:05:14.961Z,6.65
2023-01-01T11:07:45.024Z,6.97
2023-01-01T11:10:19.866Z,8.10
2023-01-01T11:13:04.858Z,4.87
2023-01-01T11:15:41.971Z,4.82
2023-01-01T11:18:14.953Z,6.53
2023-01-01T11:20:42.094Z,5.22
2023-01-01T11:23:33.815Z,5.57
2023-01-01T11:26:13.900Z,7.83
2023-01-01T11:28:41.198Z,3.40
2023-01-01T11:31:15.903Z,3.28
2023-01-01T11:33:48.185Z,7.28
2023-01-01T11:36:22.341Z,5.95
2023-01-01T11:39:03.712Z,7.57
2023-01-01T11:41:42.197Z,8.23
2023-01-01T11:44:12.306Z,6.72
2023-01-01T11:46:39.468Z,8.63
2023-01-01T11:49:21.342Z,6.90
2023-01-01T11:51:47.793Z,6.53
2023-01-01T11:54:32.953Z,4.93
2023-01-01T11:57:14.341Z,6.18
2023-01-01T11:59:46.957Z,6.00
2023-01-01T12:02:18.127Z,5.05
2023-01-01T12:04:52.314Z,4.40
2023-01-01T12:07:24.385Z,7.88
2023-01-01T12:10:19.109Z,5.68
2023-01-01T12:13:17.364Z,5.57
2023-01-01T12:16:25.181Z,4.75
2023-01-01T12:18:58.306Z,5.17
2023-01-01T12:21:29.156Z,6.20
2023-01-01T12:23:55.963Z,6.25
2023-01-01T12:26:27.770Z,8.05
2023-01-01T12:29:09.444Z,5.82
2023-01-01T12:31:56.029Z,6.87
2023-01-01T12:35:09.790Z,5.93
2023-01-01T12:38:02.569Z,5.60
2023-01-01T12:40:32.274Z,11.60
2023-01-01T12:43:21.807Z,4.40
2023-01-01T12:46:15.537Z,5.47
2023-01-01T12:48:41.809Z,4.30
2023-01-01T12:51:25.815Z,6.53
2023-01-01T12:54:16.995Z,6.30
2023-01-01T12:56:56.222Z,10.32
2023-01-01T12:59:40.041Z,7.60
2023-01-01T13:02:23.174Z,7.88
2023-01-01T13:04:53.428Z,4.63
2023-01-01T13:07:27.739Z,5.00
2023-01-01T13:09:54.908Z,10.02
2023-01-01T13:12:25.222Z,11.37
2023-01-01T13:14:51.833Z,4.40
2023-01-01T13:17:23.732Z,6.32
2023-01-01T13:20:14.944Z,9.65
2023-01-01T13:22:44.051Z,8.73
2023-01-01T13:25:13.882Z,9.10
2023-01-01T13:28:04.875Z,7.60
2023-01-01T13:30:38.124Z,10.25
2023-01-01T13:33:29.747Z,16.45
2023-01-01T13:36:08.680Z,7.53
2023-01-01T13:38:48.338Z,5.00
2023-01-01T13:41:30.050Z,11.02
2023-01-01T13:43:59.726Z,4.97
2023-01-01T13:46:35.764Z,9.13
2023-01-01T13:49:29.937Z,4.53
2023-01-01T13:52:05.821Z,7.37
2023-01-01T13:55:01.659Z,5.90
2023-01-01T13:57:48.210Z,4.25
2023-01-01T14:00:23.760Z,6.32
2023-01-01T14:02:59.038Z,7.00
2023-01-01T14:05:33.745Z,5.83
2023-01-01T14:08:00.231Z,7.93
2023-01-01T14:10:31.591Z,7.28
2023-01-01T14:13:07.379Z,5.00
2023-01-01T14:15:50.242Z,8.93
2023-01-01T14:18:18.479Z,7.53
2023-01-01T14:20:50.318Z,11.93
2023-01-01T14:23:28.595Z,10.35
2023-01-01T14:25:55.286Z,5.97
2023-01-01T14:28:27.978Z,8.45
2023-01-01T14:30:56.073Z,3.03
2023-01-01T14:33:28.428Z,6.00
2023-01-01T14:35:57.029Z,7.40
2023-01-01T14:38:44.293Z,8.65
2023-01-01T14:41:29.404Z,12.65
2023-01-01T14:44:06.024Z,5.40
2023-01-01T14:46:32.798Z,8.45
2023-01-01T14:49:10.085Z,5.05
2023-01-01T14:51:44.116Z,9.38
2023-01-01T14:54:20.803Z,7.32
2023-01-01T14:56:51.516Z,7.70
2023-01-01T14:59:26.666Z,9.30
2023-01-01T15:02:14.238Z,8.52
2023-01-01T15:04:40.940Z,4.97
2023-01-01T15:07:20.563Z,6.15
2023-01-01T15:09:46.985Z,7.60
2023-01-01T15:12:17.876Z,8.35
2023-01-01T15:14:45.830Z,9.68
2023-01-01T15:17:17.653Z,7.22
2023-01-01T15:19:45.805Z,5.93
2023-01-01T15:22:20.636Z,5.33
2023-01-01T15:24:47.318Z,5.72
2023-01-01T15:27:21.531Z,5.97
2023-01-01T15:29:48.044Z,7.40
2023-01-01T15:32:15.934Z,8.80
2023-01-01T15:34:48.825Z,6.30
2023-01-01T15:37:21.047Z,8.55
2023-01-01T15:39:51.737Z,4.45
2023-01-01T15:42:32.114Z,7.05
2023-01-01T15:45:14.825Z,6.35
2023-01-01T15:47:41.759Z,10.03
2023-01-01T15:50:20.760Z,7.97
2023-01-01T15:52:55.467Z,8.20
2023-01-01T15:55:24.785Z,7.15
2023-01-01T15:57:51.966Z,8.10
2023-01-01T16:00:24.178Z,8.47
2023-01-01T16:02:53.949Z,6.68
2023-01-01T16:05:25.608Z,16.80
2023-01-01T16:08:00.251Z,13.25
2023-01-01T16:10:26.691Z,11.23
2023-01-01T16:12:53.073Z,12.77
2023-01-01T16:15:19.624Z,9.63
2023-01-01T16:17:46.229Z,7.30
2023-01-01T16:20:17.460Z,8.65
2023-01-01T16:22:43.902Z,11.50
2023-01-01T16:25:19.382Z,8.43
2023-01-01T16:27:46.712Z,7.90
2023-01-01T16:30:14.055Z,9.75
2023-01-01T16:32:40.885Z,8.57
2023-01-01T16:35:12.955Z,8.10
2023-01-01T16:37:39.337Z,6.50
2023-01-01T16:40:07.519Z,9.02
2023-01-01T16:42:33.907Z,10.68
2023-01-01T16:45:00.281Z,7.57
2023-01-01T16:47:26.648Z,8.13
2023-01-01T16:49:53.042Z,5.73
2023-01-01T16:52:19.587Z,13.23
2023-01-01T16:54:45.973Z,8.15
2023-01-01T16:57:12.369Z,8.80
2023-01-01T16:59:38.943Z,6.07
2023-01-01T17:02:05.550Z,4.10
2023-01-01T17:04:32.135Z,13.50
2023-01-01T17:06:58.538Z,7.25
2023-01-01T17:09:24.917Z,8.35
2023-01-01T17:11:51.299Z,8.73
2023-01-01T17:14:18.180Z,15.83
2023-01-01T17:16:44.634Z,12.85
2023-01-01T17:19:17.282Z,10.27
2023-01-01T17:21:45.925Z,9.52
2023-01-01T17:24:12.486Z,7.57
2023-01-01T17:26:38.885Z,10.50
2023-01-01T17:29:07.429Z,6.88
2023-01-01T17:31:34.516Z,6.15
2023-01-01T17:34:01.107Z,8.13
2023-01-01T17:36:27.664Z,10.88
2023-01-01T17:38:54.861Z,8.03
2023-01-01T17:41:21.480Z,9.40
2023-01-01T17:43:50.335Z,21.23
2023-01-01T17:46:21.658Z,22.52
2023-01-01T17:48:48.696Z,7.65
2023-01-01T17:51:16.921Z,14.17
2023-01-01T17:53:43.956Z,12.15
2023-01-01T17:56:14.816Z,10.02
2023-01-01T17:58:43.879Z,10.77
2023-01-01T18:01:10.328Z,12.43
2023-01-01T18:03:37.684Z,10.20
2023-01-01T18:06:04.623Z,13.40
2023-01-01T18:08:32.982Z,17.05
2023-01-01T18:11:00.116Z,21.67
2023-01-01T18:13:27.254Z,17.02
2023-01-01T18:15:53.804Z,9.90
2023-01-01T18:18:20.291Z,8.88
2023-01-01T18:20:46.656Z,7.80
2023-01-01T18:23:13.264Z,11.15
2023-01-01T18:25:39.660Z,9.18
2023-01-01T18:28:07.938Z,9.30
2023-01-01T18:30:36.683Z,8.60
2023-01-01T18:33:03.241Z,10.30
2023-01-01T18:35:29.784Z,7.00
2023-01-01T18:37:57.001Z,7.80
2023-01-01T18:40:23.948Z,10.53
2023-01-01T18:43:04.921Z,10.63
2023-01-01T18:45:31.571Z,8.85
2023-01-01T18:47:59.294Z,6.10
2023-01-01T18:50:29.694Z,12.63
2023-01-01T18:53:02.962Z,7.07
2023-01-01T18:55:30.871Z,8.98
2023-01-01T18:58:13.790Z,5.25
2023-01-01T19:00:40.417Z,5.53
2023-01-01T19:03:14.613Z,9.23
2023-01-01T19:05:41.290Z,10.93
2023-01-01T19:08:07.679Z,5.55
2023-01-01T19:10:42.721Z,7.32
2023-01-01T19:13:19.106Z,11.05
2023-01-01T19:16:30.407Z,7.07
2023-01-01T19:19:06.458Z,8.07
2023-01-01T19:21:34.481Z,7.97
2023-01-01T19:24:02.666Z,9.90
2023-01-01T19:26:35.867Z,5.07
2023-01-01T19:29:22.954Z,8.15
2023-01-01T19:31:54.930Z,8.30
2023-01-01T19:34:23.052Z,5.22
2023-01-01T19:36:49.913Z,7.25
2023-01-01T19:39:17.298Z,5.47
2023-01-01T19:41:43.828Z,5.90
2023-01-01T19:44:10.685Z,6.80
2023-01-01T19:46:37.184Z,6.72
2023-01-01T19:49:03.812Z,4.32
2023-01-01T19:51:30.448Z,4.95
2023-01-01T19:53:56.910Z,4.95
2023-01-01T19:56:23.641Z,4.57
2023-01-01T19:58:50.067Z,7.63
2023-01-01T20:01:16.686Z,6.05
2023-01-01T20:03:58.934Z,7.20
2023-01-01T20:06:26.193Z,4.43
2023-01-01T20:08:53.504Z,5.77
2023-01-01T20:11:20.731Z,5.28
2023-01-01T20:13:47.368Z,7.60
2023-01-01T20:16:13.914Z,5.88
2023-01-01T20:18:40.371Z,5.65
2023-01-01T20:21:26.986Z,6.57
2023-01-01T20:23:55.012Z,6.85
2023-01-01T20:26:23.591Z,5.25
2023-01-01T20:29:08.851Z,4.65
2023-01-01T20:31:35.276Z,6.50
2023-01-01T20:34:01.685Z,4.10
2023-01-01T20:36:46.784Z,4.80
2023-01-01T20:39:13.151Z,4.32
2023-01-01T20:41:39.536Z,3.30
2023-01-01T20:44:05.992Z,6.38
2023-01-01T20:46:32.442Z,3.83
2023-01-01T20:48:59.366Z,3.05
2023-01-01T20:51:25.939Z,4.57
2023-01-01T20:53:52.334Z,3.97
2023-01-01T20:56:18.809Z,3.83
2023-01-01T20:58:49.356Z,3.77
2023-01-01T21:01:18.937Z,2.13
2023-01-01T21:03:45.393Z,4.95
2023-01-01T21:06:11.861Z,4.20
2023-01-01T21:08:38.344Z,5.18
2023-01-01T21:11:04.936Z,3.70
2023-01-01T21:13:31.407Z,4.82
2023-01-01T21:16:13.697Z,4.70
2023-01-01T21:18:41.164Z,2.67
2023-01-01T21:21:44.638Z,4.93
2023-01-01T21:24:28.342Z,7.10
2023-01-01T21:27:15.153Z,2.53
2023-01-01T21:29:45.824Z,3.78
2023-01-01T21:32:33.276Z,4.40
2023-01-01T21:34:59.956Z,2.60
2023-01-01T21:37:47.967Z,4.30
2023-01-01T21:40:36.273Z,7.18
2023-01-01T21:43:05.662Z,4.82
2023-01-01T21:45:42.789Z,5.13
2023-01-01T21:48:32.127Z,7.95
2023-01-01T21:50:59.989Z,3.83
2023-01-01T21:53:30.562Z,6.82
2023-01-01T21:55:57.730Z,8.32
2023-01-01T21:58:45.786Z,8.18
2023-01-01T22:01:26.869Z,3.90
2023-01-01T22:04:02.252Z,3.87
2023-01-01T22:06:37.066Z,2.97
2023-01-01T22:09:31.017Z,5.00
2023-01-01T22:12:02.375Z,4.72
2023-01-01T22:14:40.301Z,5.28
2023-01-01T22:17:30.700Z,5.27
2023-01-01T22:20:22.421Z,6.20
2023-01-01T22:22:49.292Z,4.53
2023-01-01T22:25:28.649Z,3.58
2023-01-01T22:27:55.882Z,7.88
2023-01-01T22:30:36.883Z,2.70
2023-01-01T22:33:13.826Z,4.57
2023-01-01T22:35:40.384Z,4.28
2023-01-01T22:38:07.915Z,4.22
2023-01-01T22:40:36.907Z,6.63
2023-01-01T22:43:13.666Z,8.70
2023-01-01T22:45:47.326Z,5.47
2023-01-01T22:48:23.122Z,4.22
2023-01-01T22:50:50.363Z,5.80
2023-01-01T22:53:17.511Z,4.95
2023-01-01T22:55:45.811Z,5.80
2023-01-01T22:58:12.611Z,4.78
2023-01-01T23:00:39.138Z,8.13
2023-01-01T23:03:05.578Z,7.13
2023-01-01T23:05:32.080Z,5.95
2023-01-01T23:07:58.775Z,3.63
2023-01-01T23:10:25.362Z,8.27
2023-01-01T23:12:51.886Z,4.72
2023-01-01T23:15:36.907Z,9.15
2023-01-01T23:18:03.483Z,6.85
2023-01-01T23:20:30.684Z,6.17
2023-01-01T23:22:57.239Z,5.00
2023-01-01T23:25:23.764Z,5.72
2023-01-01T23:27:52.423Z,4.55
2023-01-01T23:30:19.255Z,6.85
2023-01-01T23:32:46.151Z,6.63
2023-01-01T23:35:12.899Z,4.68
2023-01-01T23:37:39.538Z,4.25
2023-01-01T23:40:06.549Z,10.73
2023-01-01T23:42:33.153Z,5.30
2023-01-01T23:44:59.529Z,7.20
2023-01-01T23:47:26.034Z,6.80
2023-01-01T23:49:52.419Z,5.68
2023-01-01T23:52:18.791Z,8.10
2023-01-01T23:54:45.285Z,7.38
2023-01-01T23:57:11.640Z,7.03
2023-01-01T23:59:38.009Z,11.30
